Time;durP1;ratioP1;P1;durP2;ratioP2;P2;SDS_P1;SDS_P2;PMS_P1;PMS_P2;Temp;Humidity;BMP_temperature;BMP_pressure;BME280_temperature;BME280_humidity;BME280_pressure;Samples;Min_cycle;Max_cycle;Signal;HPM_P1;HPM_P2
2023/02/02 00:01:26;;;;;;;12.75;2.35;;;7.50;99.90;;;;;;5011805;28;20053;-55
2023/02/02 00:03:52;;;;;;;12.98;3.35;;;7.50;99.90;;;;;;4994376;28;20056;-54
2023/02/02 00:06:19;;;;;;;12.60;3.08;;;7.40;99.90;;;;;;5012153;28;20034;-55
2023/02/02 00:08:44;;;;;;;14.38;3.13;;;7.50;99.90;;;;;;4998257;28;20021;-55
2023/02/02 00:11:10;;;;;;;9.93;2.58;;;7.50;99.90;;;;;;5015898;28;20036;-52
2023/02/02 00:13:35;;;;;;;8.35;2.30;;;7.50;99.90;;;;;;5013633;28;20065;-54
2023/02/02 00:16:27;;;;;;;12.15;2.88;;;7.40;99.90;;;;;;5012163;28;20018;-53
2023/02/02 00:18:58;;;;;;;8.95;3.58;;;7.40;99.90;;;;;;5013376;28;20034;-52
2023/02/02 00:21:24;;;;;;;11.43;2.10;;;7.40;99.90;;;;;;5014266;28;20508;-53
2023/02/02 00:23:50;;;;;;;14.82;3.10;;;7.50;99.90;;;;;;5013850;28;20109;-48
2023/02/02 00:26:16;;;;;;;7.35;2.35;;;7.50;99.90;;;;;;5014187;28;20087;-50
2023/02/02 00:28:42;;;;;;;16.15;3.20;;;7.50;99.90;;;;;;5014007;28;20030;-54
2023/02/02 00:31:08;;;;;;;18.88;4.75;;;7.50;99.90;;;;;;5013909;28;20080;-51
2023/02/02 00:33:34;;;;;;;8.82;3.45;;;7.60;99.90;;;;;;5013831;28;20030;-49
2023/02/02 00:35:59;;;;;;;13.48;3.35;;;7.60;99.90;;;;;;5013701;28;20136;-51
2023/02/02 00:38:25;;;;;;;10.98;3.00;;;7.50;99.90;;;;;;5013477;28;20370;-55
2023/02/02 00:40:50;;;;;;;10.30;2.35;;;7.60;99.90;;;;;;5013873;28;20025;-53
2023/02/02 00:43:16;;;;;;;8.75;2.47;;;7.50;99.90;;;;;;5013453;28;20030;-49
2023/02/02 00:45:42;;;;;;;11.25;2.20;;;7.60;99.90;;;;;;4996315;28;20026;-48
2023/02/02 00:48:09;;;;;;;8.88;2.72;;;7.70;99.90;;;;;;4994905;28;20036;-52
2023/02/02 00:50:35;;;;;;;8.15;2.35;;;7.70;99.90;;;;;;5013707;28;20455;-52
2023/02/02 00:53:00;;;;;;;8.05;2.30;;;7.70;99.90;;;;;;5013475;28;20108;-52
2023/02/02 00:55:26;;;;;;;7.13;2.53;;;7.70;99.90;;;;;;5013538;28;20025;-51
2023/02/02 00:57:52;;;;;;;10.90;2.60;;;7.80;99.90;;;;;;5013792;28;20030;-51
2023/02/02 01:00:22;;;;;;;7.68;2.67;;;7.70;99.90;;;;;;4996082;28;20029;-51
2023/02/02 01:02:48;;;;;;;10.55;2.97;;;7.70;99.90;;;;;;5013175;28;20017;-51
2023/02/02 01:05:14;;;;;;;8.63;2.47;;;7.70;99.90;;;;;;5013367;28;20042;-53
2023/02/02 01:07:40;;;;;;;11.70;2.20;;;7.70;99.90;;;;;;5013444;28;20038;-51
2023/02/02 01:10:08;;;;;;;8.93;2.80;;;7.70;99.90;;;;;;5013622;28;20389;-53
2023/02/02 01:12:34;;;;;;;9.43;2.22;;;7.70;99.90;;;;;;5012915;28;20198;-53
2023/02/02 01:15:00;;;;;;;12.25;2.42;;;7.70;99.90;;;;;;5012901;28;20026;-49
2023/02/02 01:17:26;;;;;;;10.90;2.03;;;7.70;99.90;;;;;;5037825;23;20464;-49
2023/02/02 01:19:51;;;;;;;9.45;2.42;;;7.70;99.90;;;;;;5030733;28;20099;-55
2023/02/02 01:22:17;;;;;;;13.00;3.45;;;7.70;99.90;;;;;;5014972;28;20033;-53
2023/02/02 01:24:42;;;;;;;14.25;2.38;;;7.70;99.90;;;;;;5032800;28;20057;-52
2023/02/02 01:27:08;;;;;;;12.18;2.13;;;7.70;99.90;;;;;;5014902;28;20023;-54
2023/02/02 01:29:33;;;;;;;13.10;2.75;;;7.70;99.90;;;;;;5032656;28;20018;-51
2023/02/02 01:31:59;;;;;;;10.02;2.67;;;7.70;99.90;;;;;;5032477;28;20031;-52
2023/02/02 01:34:24;;;;;;;9.18;2.42;;;7.70;99.90;;;;;;5014881;28;20108;-51
2023/02/02 01:36:50;;;;;;;13.05;3.03;;;7.70;99.90;;;;;;5032613;28;20025;-54
2023/02/02 01:39:15;;;;;;;12.75;2.72;;;7.70;99.90;;;;;;5033069;28;20030;-51
2023/02/02 01:41:41;;;;;;;10.65;2.60;;;7.70;99.90;;;;;;5032570;28;20025;-53
2023/02/02 01:44:45;;;;;;;6.18;2.42;;;7.70;99.90;;;;;;5032167;28;20025;-54
2023/02/02 01:47:11;;;;;;;6.32;2.10;;;7.70;99.90;;;;;;5032615;28;20112;-52
2023/02/02 01:49:38;;;;;;;6.45;2.20;;;7.70;99.90;;;;;;5032359;28;20022;-52
2023/02/02 01:52:05;;;;;;;12.38;3.15;;;7.70;99.90;;;;;;5014089;28;20025;-52
2023/02/02 01:54:32;;;;;;;10.00;2.60;;;7.70;99.90;;;;;;5032305;28;20022;-52
2023/02/02 01:57:37;;;;;;;10.63;2.63;;;7.70;99.90;;;;;;5032162;28;20025;-54
2023/02/02 02:00:07;;;;;;;15.70;3.80;;;7.70;99.90;;;;;;4951656;28;20031;-53
2023/02/02 02:02:33;;;;;;;6.50;1.70;;;7.70;99.90;;;;;;5019596;28;20530;-55
2023/02/02 02:05:01;;;;;;;6.55;1.80;;;7.70;99.90;;;;;;5014297;28;20029;-52
2023/02/02 02:07:27;;;;;;;10.05;3.33;;;7.70;99.90;;;;;;5031980;28;20059;-50
2023/02/02 02:09:53;;;;;;;9.00;2.10;;;7.70;99.90;;;;;;5031971;28;20033;-51
2023/02/02 02:12:18;;;;;;;11.70;3.65;;;7.70;99.90;;;;;;5031844;28;20029;-54
2023/02/02 02:17:39;;;;;;;6.88;2.58;;;7.80;99.90;;;;;;5031863;28;20028;-55
2023/02/02 02:26:39;;;;;;;8.18;2.13;;;7.70;99.90;;;;;;5031565;28;20033;-49
2023/02/02 02:29:36;;;;;;;7.07;2.07;;;7.80;99.90;;;;;;5013886;28;20029;-49
2023/02/02 02:32:08;;;;;;;;;;;7.80;99.90;;;;;;5014378;28;20264;-53
2023/02/02 02:34:51;;;;;;;5.97;1.65;;;7.70;99.90;;;;;;5031545;28;20315;-50
2023/02/02 02:37:22;;;;;;;8.10;2.20;;;7.70;99.90;;;;;;5031565;28;20476;-53
2023/02/02 02:40:11;;;;;;;5.85;2.28;;;7.70;99.90;;;;;;5013917;28;20402;-49
2023/02/02 02:42:41;;;;;;;5.57;1.67;;;7.80;99.90;;;;;;5031350;28;20397;-52
2023/02/02 02:45:09;;;;;;;7.32;1.92;;;7.80;99.90;;;;;;5032025;28;20033;-57
2023/02/02 02:47:36;;;;;;;6.78;2.63;;;7.80;99.90;;;;;;5031337;28;20034;-55
2023/02/02 02:50:02;;;;;;;10.75;2.78;;;7.80;99.90;;;;;;5031676;28;20048;-52
2023/02/02 02:52:28;;;;;;;5.47;1.80;;;7.80;99.90;;;;;;5031493;28;20079;-54
2023/02/02 02:54:55;;;;;;;4.93;1.92;;;7.80;99.90;;;;;;5013459;28;20025;-52
2023/02/02 02:57:52;;;;;;;6.13;2.17;;;7.80;99.90;;;;;;5030940;28;20034;-52
2023/02/02 03:00:49;;;;;;;6.32;2.13;;;7.80;99.90;;;;;;5031326;28;20044;-56
2023/02/02 03:03:40;;;;;;;7.18;2.42;;;7.80;99.90;;;;;;5031055;28;20481;-52
2023/02/02 03:06:10;;;;;;;5.45;2.00;;;7.80;99.90;;;;;;5031420;28;20060;-52
2023/02/02 03:08:46;;;;;;;8.18;2.53;;;7.80;99.90;;;;;;5013557;28;20140;-52
2023/02/02 03:11:14;;;;;;;3.17;1.50;;;7.80;99.90;;;;;;5031411;28;20032;-55
2023/02/02 03:13:40;;;;;;;8.55;1.75;;;7.80;99.90;;;;;;5035002;28;20499;-54
2023/02/02 03:16:06;;;;;;;10.63;2.00;;;7.80;99.90;;;;;;5034998;28;20029;-56
2023/02/02 03:18:33;;;;;;;5.25;1.63;;;7.80;99.90;;;;;;5017338;28;20075;-54
2023/02/02 03:20:59;;;;;;;8.30;2.10;;;7.80;99.90;;;;;;5017839;28;20468;-50
2023/02/02 03:23:25;;;;;;;6.30;1.85;;;7.80;99.90;;;;;;5034875;28;20029;-54
2023/02/02 03:25:50;;;;;;;4.57;1.65;;;7.80;99.90;;;;;;5035016;28;20029;-52
2023/02/02 03:28:17;;;;;;;5.72;1.92;;;7.80;99.90;;;;;;5017122;28;20029;-50
2023/02/02 03:30:44;;;;;;;7.43;1.73;;;7.80;99.90;;;;;;5017811;28;20029;-54
2023/02/02 03:33:10;;;;;;;10.07;2.33;;;7.80;99.90;;;;;;5034731;28;20060;-51
2023/02/02 03:35:36;;;;;;;5.68;1.75;;;7.80;99.90;;;;;;5034902;28;20029;-51
2023/02/02 03:38:02;;;;;;;10.52;1.92;;;7.80;99.90;;;;;;5034776;28;20031;-50
2023/02/02 03:40:28;;;;;;;10.68;2.28;;;7.80;99.90;;;;;;5034657;28;20044;-53
2023/02/02 03:42:54;;;;;;;8.32;2.45;;;7.80;99.90;;;;;;5034767;28;20441;-49
2023/02/02 03:45:20;;;;;;;11.20;2.33;;;7.80;99.90;;;;;;5034829;28;20033;-52
2023/02/02 03:47:46;;;;;;;5.57;1.73;;;7.80;99.90;;;;;;5034973;28;20488;-52
2023/02/02 03:50:12;;;;;;;7.93;1.92;;;7.80;99.90;;;;;;5034966;28;20528;-54
2023/02/02 03:52:37;;;;;;;5.60;2.13;;;7.90;99.90;;;;;;5034560;28;20053;-54
2023/02/02 03:55:04;;;;;;;3.22;1.65;;;7.80;99.90;;;;;;5016830;28;20072;-50
2023/02/02 03:57:30;;;;;;;8.77;1.85;;;7.90;99.90;;;;;;5034460;28;20060;-53
2023/02/02 03:59:55;;;;;;;6.13;1.90;;;7.80;99.90;;;;;;5016538;28;20529;-50
2023/02/02 04:02:21;;;;;;;7.40;1.88;;;7.80;99.90;;;;;;5034353;28;20021;-51
2023/02/02 04:04:47;;;;;;;4.07;1.50;;;7.80;99.90;;;;;;5016462;28;20527;-50
2023/02/02 04:07:12;;;;;;;7.57;1.98;;;7.80;99.90;;;;;;5034600;28;20414;-50
2023/02/02 04:09:38;;;;;;;4.93;1.38;;;7.80;99.90;;;;;;5034228;28;20044;-53
2023/02/02 04:12:03;;;;;;;5.85;2.17;;;7.80;99.90;;;;;;5034209;28;20026;-49
2023/02/02 04:14:29;;;;;;;5.05;1.67;;;7.80;99.90;;;;;;5016133;28;20067;-49
2023/02/02 04:16:54;;;;;;;6.65;1.98;;;7.80;99.90;;;;;;5016476;28;20029;-52
2023/02/02 04:19:20;;;;;;;3.33;1.65;;;7.80;99.90;;;;;;5034069;28;20034;-53
2023/02/02 04:21:45;;;;;;;9.77;1.85;;;7.80;99.90;;;;;;5034187;28;20057;-56
2023/02/02 04:24:13;;;;;;;7.22;1.90;;;7.80;99.90;;;;;;5032510;28;20096;-53
2023/02/02 04:26:38;;;;;;;10.27;2.92;;;7.80;99.90;;;;;;5033904;28;20034;-50
2023/02/02 04:29:04;;;;;;;8.68;1.60;;;7.80;99.90;;;;;;5033976;28;20075;-52
2023/02/02 04:31:30;;;;;;;7.18;2.45;;;7.80;99.90;;;;;;5017196;28;20124;-58
2023/02/02 04:33:56;;;;;;;3.38;1.95;;;7.70;99.90;;;;;;5017951;28;20039;-52
2023/02/02 04:36:22;;;;;;;7.68;2.53;;;7.70;99.90;;;;;;5016580;28;20029;-55
2023/02/02 04:38:49;;;;;;;4.70;2.22;;;7.80;99.90;;;;;;5034957;28;20032;-56
2023/02/02 04:41:14;;;;;;;5.20;1.77;;;7.80;99.90;;;;;;5035455;28;20048;-57
2023/02/02 04:43:40;;;;;;;9.18;2.13;;;7.80;99.90;;;;;;5034519;28;20105;-55
2023/02/02 04:46:06;;;;;;;9.60;2.50;;;7.80;99.90;;;;;;5016748;28;20084;-57
2023/02/02 04:48:31;;;;;;;7.97;2.10;;;7.80;99.90;;;;;;5016041;28;20026;-53
2023/02/02 04:51:01;;;;;;;5.03;1.67;;;7.80;99.90;;;;;;5034028;28;20038;-56
2023/02/02 04:53:27;;;;;;;9.90;2.30;;;7.90;99.90;;;;;;5033463;28;20058;-53
2023/02/02 04:55:53;;;;;;;6.15;2.17;;;7.90;99.90;;;;;;5015817;28;20026;-54
2023/02/02 04:58:19;;;;;;;9.52;2.70;;;7.90;99.90;;;;;;5033249;28;20066;-54
2023/02/02 05:00:45;;;;;;;4.50;2.15;;;7.90;99.90;;;;;;5033352;28;20496;-57
2023/02/02 05:03:10;;;;;;;5.80;1.65;;;7.80;99.90;;;;;;5015406;28;20022;-56
2023/02/02 05:05:36;;;;;;;7.07;2.20;;;7.80;99.90;;;;;;5015297;28;20117;-56
2023/02/02 05:08:01;;;;;;;6.05;3.22;;;7.80;99.90;;;;;;5033145;28;20117;-54
2023/02/02 05:10:27;;;;;;;7.82;2.47;;;7.80;99.90;;;;;;5033258;28;20108;-55
2023/02/02 05:12:53;;;;;;;7.22;2.17;;;7.90;99.90;;;;;;5032844;28;20029;-48
2023/02/02 05:15:20;;;;;;;8.52;2.30;;;7.90;99.90;;;;;;5032939;28;20224;-54
2023/02/02 05:17:46;;;;;;;7.13;2.70;;;7.90;99.90;;;;;;5015446;28;20095;-54
2023/02/02 05:20:11;;;;;;;5.57;1.80;;;7.90;99.90;;;;;;5033070;28;20025;-56
2023/02/02 05:22:37;;;;;;;12.55;2.85;;;7.90;99.90;;;;;;5014683;28;20052;-53
2023/02/02 05:25:04;;;;;;;3.70;1.70;;;8.00;99.90;;;;;;5032897;28;20095;-53
2023/02/02 05:27:29;;;;;;;9.80;2.33;;;7.90;99.90;;;;;;5032648;28;20021;-53
2023/02/02 05:29:55;;;;;;;7.00;1.90;;;7.90;99.90;;;;;;5015040;28;20492;-55
2023/02/02 05:32:20;;;;;;;11.77;3.00;;;7.90;99.90;;;;;;5034096;28;20269;-50
2023/02/02 05:34:46;;;;;;;7.30;1.75;;;8.00;99.90;;;;;;5015956;28;20029;-50
2023/02/02 05:37:11;;;;;;;9.65;2.50;;;8.00;99.90;;;;;;5033903;28;20014;-52
2023/02/02 05:39:37;;;;;;;6.93;2.55;;;8.00;99.90;;;;;;5016654;28;20048;-50
2023/02/02 05:42:02;;;;;;;6.15;2.20;;;7.90;99.90;;;;;;5034267;28;20108;-50
2023/02/02 05:44:28;;;;;;;10.05;1.80;;;8.00;99.90;;;;;;5034214;28;20037;-50
2023/02/02 05:46:53;;;;;;;9.27;2.70;;;8.00;99.90;;;;;;5016090;28;20472;-50
2023/02/02 05:49:19;;;;;;;3.70;1.58;;;8.00;99.90;;;;;;5033468;28;20362;-49
2023/02/02 05:51:48;;;;;;;8.88;1.73;;;8.00;99.90;;;;;;5033627;28;20032;-54
2023/02/02 05:54:18;;;;;;;5.20;1.98;;;8.00;99.90;;;;;;5033196;28;20515;-51
2023/02/02 05:56:44;;;;;;;7.65;1.98;;;7.90;99.90;;;;;;5015485;28;20028;-52
2023/02/02 05:59:09;;;;;;;6.15;1.63;;;7.90;99.90;;;;;;5032914;28;20025;-49
2023/02/02 06:01:35;;;;;;;6.85;1.70;;;7.90;99.90;;;;;;5032756;28;20027;-54
2023/02/02 06:04:00;;;;;;;5.20;2.13;;;7.90;99.90;;;;;;5032313;28;20104;-52
2023/02/02 06:06:26;;;;;;;6.50;2.20;;;7.90;99.90;;;;;;5014848;28;20029;-51
2023/02/02 06:08:51;;;;;;;10.38;2.45;;;7.90;99.90;;;;;;5032776;28;20030;-49
2023/02/02 06:11:18;;;;;;;11.45;2.10;;;7.90;99.90;;;;;;5032412;28;20108;-50
2023/02/02 06:13:43;;;;;;;10.63;2.03;;;7.90;99.90;;;;;;5032174;28;20028;-53
2023/02/02 06:16:09;;;;;;;12.20;2.13;;;7.80;99.90;;;;;;5013841;28;20395;-53
2023/02/02 06:18:36;;;;;;;6.80;2.25;;;7.80;99.90;;;;;;5032043;28;20411;-49
2023/02/02 06:21:07;;;;;;;5.80;1.80;;;7.90;99.90;;;;;;5032124;28;20523;-52
2023/02/02 06:23:33;;;;;;;9.82;2.00;;;7.90;99.90;;;;;;5031718;28;20022;-53
2023/02/02 06:25:59;;;;;;;7.13;3.15;;;7.90;99.90;;;;;;5032029;28;20499;-51
2023/02/02 06:28:24;;;;;;;5.93;2.10;;;7.90;99.90;;;;;;5031757;28;20037;-50
2023/02/02 06:30:50;;;;;;;5.53;1.70;;;7.90;99.90;;;;;;5031821;28;20381;-50
2023/02/02 06:33:15;;;;;;;7.80;2.00;;;7.90;99.90;;;;;;5031546;28;20045;-54
2023/02/02 06:35:41;;;;;;;9.90;2.67;;;7.90;99.90;;;;;;5031420;28;20025;-51
2023/02/02 06:38:07;;;;;;;10.15;2.42;;;7.90;99.90;;;;;;5014087;28;20025;-52
2023/02/02 06:40:32;;;;;;;5.82;2.10;;;7.80;99.90;;;;;;5031793;28;20028;-53
2023/02/02 06:43:00;;;;;;;7.65;2.17;;;7.90;99.90;;;;;;5030932;28;20378;-53
2023/02/02 06:45:26;;;;;;;9.32;2.08;;;7.90;99.90;;;;;;5014204;28;20485;-51
2023/02/02 06:47:52;;;;;;;12.10;2.58;;;7.90;99.90;;;;;;5031119;28;20408;-52
2023/02/02 06:50:18;;;;;;;12.25;2.83;;;7.90;99.90;;;;;;5031793;28;20480;-49
2023/02/02 06:52:48;;;;;;;9.10;2.20;;;7.90;99.90;;;;;;5013506;28;20108;-47
2023/02/02 06:55:14;;;;;;;6.32;2.00;;;7.80;99.90;;;;;;5031341;28;20036;-49
2023/02/02 06:57:39;;;;;;;11.07;2.05;;;7.90;99.90;;;;;;5031371;28;20380;-54
2023/02/02 07:00:05;;;;;;;8.20;2.05;;;7.80;99.90;;;;;;5031290;28;20030;-49
2023/02/02 07:02:31;;;;;;;5.53;1.90;;;7.80;99.90;;;;;;5031280;28;20095;-55
2023/02/02 07:04:56;;;;;;;8.80;3.45;;;7.80;99.90;;;;;;5031595;28;20022;-52
2023/02/02 07:07:22;;;;;;;14.25;3.92;;;7.90;99.90;;;;;;5013720;28;20041;-52
2023/02/02 07:09:47;;;;;;;8.50;2.00;;;7.90;99.90;;;;;;5013743;28;20085;-51
2023/02/02 07:12:13;;;;;;;9.32;1.92;;;7.90;99.90;;;;;;5013922;28;20021;-53
2023/02/02 07:14:38;;;;;;;6.85;2.53;;;7.90;99.90;;;;;;5030892;28;20036;-50
2023/02/02 07:17:04;;;;;;;2.90;1.73;;;7.90;99.90;;;;;;5012991;28;20085;-54
2023/02/02 07:19:29;;;;;;;2.80;1.60;;;7.90;99.90;;;;;;5040166;23;20045;-52
2023/02/02 07:21:55;;;;;;;10.15;2.70;;;8.00;99.90;;;;;;5051153;28;20096;-49
2023/02/02 07:24:20;;;;;;;16.17;1.80;;;8.00;99.90;;;;;;5050542;28;20388;-49
2023/02/02 07:26:45;;;;;;;7.45;1.90;;;8.00;99.90;;;;;;5051168;28;20033;-54
2023/02/02 07:29:13;;;;;;;6.55;2.47;;;8.00;99.90;;;;;;5051162;28;20435;-53
2023/02/02 07:31:38;;;;;;;6.57;2.20;;;8.00;99.90;;;;;;5051013;28;20029;-51
2023/02/02 07:34:05;;;;;;;11.52;2.38;;;8.00;99.90;;;;;;5032880;28;20503;-50
2023/02/02 07:36:31;;;;;;;7.78;1.85;;;8.00;99.90;;;;;;5051006;28;20033;-50
2023/02/02 07:38:56;;;;;;;12.48;2.45;;;8.00;99.90;;;;;;5033069;28;20075;-50
2023/02/02 07:41:23;;;;;;;4.88;1.85;;;8.00;99.90;;;;;;5051101;28;20074;-53
2023/02/02 07:43:49;;;;;;;6.80;1.67;;;8.00;99.90;;;;;;5050643;28;20373;-50
2023/02/02 07:46:16;;;;;;;16.10;2.70;;;8.00;99.90;;;;;;5050942;28;20022;-52
2023/02/02 07:48:41;;;;;;;7.35;2.15;;;8.00;99.90;;;;;;5032677;28;20457;-51
2023/02/02 07:51:11;;;;;;;5.40;2.45;;;8.10;99.90;;;;;;5033196;28;20060;-53
2023/02/02 07:53:37;;;;;;;4.53;1.88;;;8.10;99.90;;;;;;5050766;28;20067;-53
2023/02/02 07:56:09;;;;;;;7.30;2.55;;;8.10;99.90;;;;;;5050733;28;20056;-53
2023/02/02 07:58:36;;;;;;;8.27;1.73;;;8.10;99.90;;;;;;5052884;28;20120;-50
2023/02/02 08:01:03;;;;;;;7.72;2.03;;;8.10;99.90;;;;;;5054551;28;20476;-51
2023/02/02 08:03:29;;;;;;;7.65;2.63;;;8.20;99.90;;;;;;5054271;28;20112;-53
2023/02/02 08:05:55;;;;;;;7.88;2.13;;;8.10;99.90;;;;;;5054444;28;20164;-52
2023/02/02 08:08:21;;;;;;;4.45;2.08;;;8.20;99.90;;;;;;5054294;28;20385;-54
2023/02/02 08:10:51;;;;;;;9.18;2.47;;;8.10;99.90;;;;;;5054322;28;20036;-48
2023/02/02 08:13:16;;;;;;;6.22;1.80;;;8.10;99.90;;;;;;5054091;28;20029;-50
2023/02/02 08:15:42;;;;;;;6.18;1.83;;;8.20;99.90;;;;;;5034678;28;20032;-51
2023/02/02 08:18:08;;;;;;;7.53;2.10;;;8.20;99.90;;;;;;5046719;28;20026;-51
2023/02/02 08:20:33;;;;;;;8.73;2.42;;;8.20;99.90;;;;;;5034199;28;20030;-55
2023/02/02 08:22:59;;;;;;;10.05;1.80;;;8.20;99.90;;;;;;5033051;28;20029;-53
2023/02/02 08:25:24;;;;;;;7.00;1.60;;;8.20;99.90;;;;;;5032049;28;20032;-53
2023/02/02 08:27:57;;;;;;;8.02;2.33;;;8.30;99.90;;;;;;5031866;28;20040;-56
2023/02/02 08:30:23;;;;;;;8.07;2.13;;;8.30;99.90;;;;;;5046156;28;20529;-52
2023/02/02 08:32:49;;;;;;;5.25;1.83;;;8.30;99.90;;;;;;5033179;28;20029;-58
2023/02/02 08:35:15;;;;;;;8.75;2.13;;;8.40;99.90;;;;;;5052145;28;20035;-55
2023/02/02 08:37:40;;;;;;;5.03;2.13;;;8.40;99.90;;;;;;5033696;28;20025;-56
2023/02/02 08:40:07;;;;;;;7.00;1.85;;;8.40;99.90;;;;;;5051992;28;20036;-54
2023/02/02 08:42:32;;;;;;;6.53;2.05;;;8.50;99.90;;;;;;5053387;28;20025;-52
2023/02/02 08:44:58;;;;;;;8.02;2.20;;;8.50;99.90;;;;;;5053668;28;20028;-52
2023/02/02 08:47:23;;;;;;;8.73;2.10;;;8.60;99.90;;;;;;5035489;28;20047;-49
2023/02/02 08:49:49;;;;;;;10.80;2.38;;;8.60;99.90;;;;;;5053983;28;20025;-53
2023/02/02 08:52:14;;;;;;;8.77;2.72;;;8.70;99.90;;;;;;5053745;28;20021;-56
2023/02/02 08:54:40;;;;;;;6.22;2.17;;;8.70;99.90;;;;;;5053160;28;20053;-53
2023/02/02 08:57:05;;;;;;;14.95;2.75;;;8.80;99.90;;;;;;5035944;28;20028;-53
2023/02/02 08:59:31;;;;;;;12.75;2.75;;;8.80;99.90;;;;;;5053607;28;20067;-55
2023/02/02 09:01:56;;;;;;;6.13;2.47;;;8.80;99.90;;;;;;5053415;28;20025;-59
2023/02/02 09:04:22;;;;;;;10.05;3.22;;;8.90;99.90;;;;;;5053208;28;20033;-51
2023/02/02 09:06:47;;;;;;;5.00;1.60;;;8.80;99.90;;;;;;5053189;28;20025;-54
2023/02/02 09:09:14;;;;;;;9.57;2.83;;;8.80;99.90;;;;;;5052406;28;20029;-57
2023/02/02 09:11:41;;;;;;;7.82;2.10;;;8.80;99.90;;;;;;5053092;28;20166;-52
2023/02/02 09:14:07;;;;;;;3.83;1.70;;;8.80;99.90;;;;;;5034805;28;20027;-54
2023/02/02 09:16:33;;;;;;;10.43;2.60;;;8.80;99.90;;;;;;5052818;28;20492;-56
2023/02/02 09:18:59;;;;;;;9.20;2.30;;;8.90;99.90;;;;;;5052936;28;20028;-52
2023/02/02 09:21:25;;;;;;;7.15;2.00;;;8.90;99.90;;;;;;5052754;28;20104;-52
2023/02/02 09:23:55;;;;;;;8.23;1.38;;;9.00;99.90;;;;;;5052316;28;20147;-51
2023/02/02 09:26:26;;;;;;;6.97;2.10;;;9.00;99.90;;;;;;5052298;28;20025;-51
2023/02/02 09:28:57;;;;;;;8.68;1.77;;;9.00;99.90;;;;;;5044202;28;20040;-56
2023/02/02 09:31:24;;;;;;;8.00;2.38;;;9.00;99.90;;;;;;5032692;28;20137;-54
2023/02/02 09:33:50;;;;;;;11.52;2.25;;;9.00;99.90;;;;;;5014432;28;20477;-54
2023/02/02 09:36:21;;;;;;;4.75;1.63;;;9.00;99.90;;;;;;5035269;28;20083;-56
2023/02/02 09:38:47;;;;;;;10.05;1.98;;;9.00;99.90;;;;;;5034537;28;20023;-53
2023/02/02 09:41:42;;;;;;;5.68;1.83;;;9.10;99.90;;;;;;5028976;28;20053;-54
2023/02/02 09:44:38;;;;;;;8.55;1.85;;;9.10;99.90;;;;;;5047682;28;20033;-56
2023/02/02 09:47:16;;;;;;;;;;;9.10;99.90;;;;;;5038074;28;20117;-56
2023/02/02 09:50:02;;;;;;;6.43;1.30;;;9.10;99.90;;;;;;5032307;28;19916;-56
2023/02/02 09:52:29;;;;;;;;;;;9.10;99.90;;;;;;5015055;28;20124;-56
2023/02/02 09:55:33;;;;;;;6.40;1.92;;;9.10;99.90;;;;;;5032207;28;20367;-51
2023/02/02 09:58:27;;;;;;;5.03;1.50;;;9.20;99.90;;;;;;5013258;28;20510;-53
2023/02/02 10:01:13;;;;;;;5.43;1.38;;;9.20;99.90;;;;;;5044861;28;20033;-50
2023/02/02 10:04:06;;;;;;;5.72;1.73;;;9.20;99.90;;;;;;5031634;28;20108;-49
2023/02/02 10:06:37;;;;;;;7.18;2.05;;;9.20;99.90;;;;;;5045926;28;20531;-49
2023/02/02 10:09:28;;;;;;;5.47;2.05;;;9.30;99.90;;;;;;5052116;28;20035;-51
2023/02/02 10:12:14;;;;;;;8.30;2.13;;;9.20;99.90;;;;;;5052345;28;20535;-50
2023/02/02 10:14:50;;;;;;;3.85;1.65;;;9.20;99.90;;;;;;5036551;28;20029;-51
2023/02/02 10:17:34;;;;;;;5.22;1.92;;;9.10;99.90;;;;;;5040142;28;20020;-49
2023/02/02 10:20:13;;;;;;;5.18;2.28;;;9.10;99.90;;;;;;5033551;28;20116;-54
2023/02/02 10:22:40;;;;;;;10.85;1.95;;;9.00;99.90;;;;;;5037772;28;20017;-51
2023/02/02 10:25:11;;;;;;;2.70;1.40;;;9.10;99.90;;;;;;5052177;28;20021;-49
2023/02/02 10:27:39;;;;;;;5.13;1.70;;;9.10;99.90;;;;;;5051766;28;20154;-53
2023/02/02 10:30:17;;;;;;;10.05;1.92;;;9.10;99.90;;;;;;5051727;28;20055;-49
2023/02/02 10:33:15;;;;;;;11.00;1.67;;;9.10;99.90;;;;;;5046831;28;20029;-50
2023/02/02 10:35:58;;;;;;;6.63;1.50;;;9.10;99.90;;;;;;5020678;28;20243;-53
2023/02/02 10:38:23;;;;;;;3.95;1.58;;;9.10;99.90;;;;;;5046096;28;20025;-50
2023/02/02 10:41:18;;;;;;;4.68;1.40;;;9.10;99.90;;;;;;5051557;28;20021;-48
2023/02/02 10:44:04;;;;;;;6.25;1.83;;;9.10;99.90;;;;;;5051103;28;20499;-49
2023/02/02 10:46:33;;;;;;;;;;;9.10;99.90;;;;;;5063977;28;20553;-50
2023/02/02 10:49:14;;;;;;;2.92;1.17;;;9.10;99.90;;;;;;5051358;28;20418;-51
2023/02/02 10:51:40;;;;;;;6.38;1.85;;;9.10;99.90;;;;;;5050683;28;20040;-49
2023/02/02 10:54:43;;;;;;;9.43;1.63;;;9.20;99.90;;;;;;5041714;28;20028;-56
2023/02/02 10:57:13;;;;;;;7.20;1.70;;;9.20;99.90;;;;;;5034015;28;20037;-55
2023/02/02 10:59:50;;;;;;;6.32;1.55;;;9.20;99.90;;;;;;5033594;28;20063;-50
2023/02/02 11:02:15;;;;;;;12.75;3.05;;;9.20;99.90;;;;;;5051140;28;20028;-55
2023/02/02 11:07:25;;;;;;;6.80;1.30;;;9.20;99.90;;;;;;5050999;28;20036;-49
2023/02/02 11:09:52;;;;;;;5.63;1.58;;;9.30;99.90;;;;;;5051129;28;20025;-52
2023/02/02 11:12:33;;;;;;;4.05;1.48;;;9.30;99.90;;;;;;5051304;28;20115;-52
2023/02/02 11:15:00;;;;;;;3.92;1.83;;;9.30;99.90;;;;;;5049923;28;20052;-52
2023/02/02 11:17:27;;;;;;;5.65;2.30;;;9.40;99.90;;;;;;5044386;28;20028;-53
2023/02/02 11:19:55;;;;;;;10.63;1.83;;;9.40;99.90;;;;;;5049989;28;20037;-49
2023/02/02 11:22:37;;;;;;;7.25;1.55;;;9.40;99.90;;;;;;5032041;28;20021;-57
2023/02/02 11:25:25;;;;;;;3.95;1.25;;;9.40;99.90;;;;;;5052448;28;20035;-56
2023/02/02 11:27:50;;;;;;;5.90;1.30;;;9.40;99.90;;;;;;5030540;28;20500;-54
2023/02/02 11:30:36;;;;;;;2.53;1.33;;;9.50;99.90;;;;;;5040196;28;20044;-56
2023/02/02 11:33:38;;;;;;;4.53;1.40;;;9.50;99.90;;;;;;5048066;28;20108;-53
2023/02/02 11:36:23;;;;;;;6.78;1.13;;;9.50;99.90;;;;;;4945567;29;20099;-52
2023/02/02 11:39:18;;;;;;;5.43;1.10;;;9.50;99.90;;;;;;5027614;28;20546;-51
2023/02/02 11:41:43;;;;;;;7.45;1.70;;;9.50;99.90;;;;;;5056375;28;20029;-52
2023/02/02 11:44:23;;;;;;;3.38;1.25;;;9.40;99.90;;;;;;5056927;28;20029;-55
2023/02/02 11:46:50;;;;;;;3.08;1.20;;;9.40;99.90;;;;;;5057551;28;20365;-57
2023/02/02 11:49:19;;;;;;;3.25;1.15;;;9.40;99.90;;;;;;5055181;28;20033;-53
2023/02/02 11:51:59;;;;;;;5.80;1.50;;;9.40;99.90;;;;;;5055046;28;20059;-58
2023/02/02 11:54:31;;;;;;;3.55;1.10;;;9.40;99.90;;;;;;5037624;28;20032;-53
2023/02/02 11:57:00;;;;;;;5.03;1.73;;;9.50;99.90;;;;;;5053734;28;20025;-57
2023/02/02 11:59:47;;;;;;;2.90;1.27;;;9.40;99.90;;;;;;5035203;28;20029;-53
2023/02/02 12:02:18;;;;;;;4.25;1.10;;;9.40;99.90;;;;;;5031879;28;20025;-57
2023/02/02 12:04:44;;;;;;;2.97;1.63;;;9.50;99.90;;;;;;5037456;28;20021;-56
2023/02/02 12:07:27;;;;;;;3.20;1.10;;;9.50;99.90;;;;;;5037683;28;20074;-59
2023/02/02 12:09:58;;;;;;;1.73;1.30;;;9.50;99.90;;;;;;5054901;28;20025;-53
2023/02/02 12:12:48;;;;;;;3.90;1.17;;;9.50;99.90;;;;;;5036649;28;20428;-55
2023/02/02 12:15:42;;;;;;;4.53;1.05;;;9.60;99.90;;;;;;5031515;28;20033;-56
2023/02/02 12:18:29;;;;;;;4.03;1.63;;;9.80;99.90;;;;;;5016498;28;20405;-57
2023/02/02 12:21:06;;;;;;;3.00;1.55;;;9.80;99.90;;;;;;5017327;28;20087;-52
2023/02/02 12:23:49;;;;;;;3.58;1.25;;;9.70;99.90;;;;;;5035298;28;20033;-56
2023/02/02 12:26:26;;;;;;;2.05;1.27;;;9.70;99.90;;;;;;5042795;28;20332;-56
2023/02/02 12:29:17;;;;;;;2.90;1.25;;;9.80;99.90;;;;;;5049110;28;20413;-53
2023/02/02 12:32:07;;;;;;;5.18;1.38;;;9.80;99.90;;;;;;5034396;28;20374;-55
2023/02/02 12:34:44;;;;;;;4.28;1.25;;;9.90;99.90;;;;;;5015172;28;20029;-57
2023/02/02 12:37:42;;;;;;;3.42;1.20;;;10.00;99.90;;;;;;5029968;28;20527;-57
2023/02/02 12:40:28;;;;;;;3.58;1.00;;;10.20;99.90;;;;;;5053416;28;20021;-61
2023/02/02 12:43:27;;;;;;;5.78;1.40;;;10.30;99.90;;;;;;5036595;28;20388;-51
2023/02/02 12:46:11;;;;;;;3.75;1.45;;;10.30;99.90;;;;;;5035852;28;20033;-61
2023/02/02 12:49:25;;;;;;;2.88;1.02;;;10.30;99.90;;;;;;5020098;28;20057;-60
2023/02/02 12:52:23;;;;;;;4.95;1.05;;;10.30;99.90;;;;;;5012465;28;20505;-60
2023/02/02 12:54:57;;;;;;;2.47;0.88;;;10.20;99.90;;;;;;5033101;28;20492;-57
2023/02/02 12:57:52;;;;;;;3.33;1.25;;;10.20;99.90;;;;;;5033555;28;20032;-60
2023/02/02 13:00:43;;;;;;;1.65;1.10;;;10.10;99.90;;;;;;5033067;28;20030;-60
2023/02/02 13:03:31;;;;;;;2.25;1.10;;;10.10;99.90;;;;;;5039640;28;20083;-60
2023/02/02 13:12:23;;;;;;;2.60;0.80;;;10.10;99.90;;;;;;5036811;28;20037;-61
2023/02/02 13:14:59;;;;;;;3.42;1.00;;;10.00;99.90;;;;;;5032671;28;20029;-59
2023/02/02 13:17:35;;;;;;;2.05;0.85;;;10.00;99.90;;;;;;5036864;28;20039;-60
2023/02/02 13:20:06;;;;;;;;;;;10.00;99.90;;;;;;5067178;23;20616;-47
2023/02/02 13:22:40;;;;;;;3.45;1.10;;;10.00;99.90;;;;;;5052565;28;20000;-50
2023/02/02 13:25:13;;;;;;;1.20;0.70;;;10.00;99.90;;;;;;5052668;28;20055;-48
2023/02/02 13:27:40;;;;;;;1.65;0.75;;;10.00;99.90;;;;;;5052736;28;20115;-46
2023/02/02 13:30:35;;;;;;;1.38;0.80;;;9.90;99.90;;;;;;5052517;28;20025;-45
2023/02/02 13:33:15;;;;;;;1.40;0.90;;;9.90;99.90;;;;;;5052443;28;20460;-46